Lusaka, Zambia
Current Conditions -  °F | °C
As of 5:00 PM on Friday 19 Dec 2014 (Local Time) from FYKM Reporting Station
Broken Clouds Broken Clouds  
Wind Chill: 79°   Ceiling: 2000
Heat Index: 81°   Visibility: 6mi
Dew Point: 66°   Wind: 0mph
Humidity: 65%   Direction: NA
Pressure: 29.91"   Gusts: NA
Location:  15.42°S, 28.29°E
Report Text: FYKM 191500Z 00000KT 9999 BKN020 26/19 Q1013
Loading
Personal Weather Stations






























Interactive Weather Map New forecast layout! Learn more

10-Day Weather Forecast

Advertisements
Track Severe Weather on mobile